Time;durP1;ratioP1;P1;durP2;ratioP2;P2;SDS_P1;SDS_P2;PMS_P1;PMS_P2;Temp;Humidity;BMP_temperature;BMP_pressure;BME280_temperature;BME280_humidity;BME280_pressure;Samples;Min_cycle;Max_cycle;Signal;HPM_P1;HPM_P2
2022/03/14 00:01:40;;;;;;;1.73;1.10;;;22.10;40.20;;;;;;5002925;28;20806;-70
2022/03/14 00:04:06;;;;;;;1.30;0.95;;;22.10;40.20;;;;;;5001152;28;20447;-67
2022/03/14 00:06:32;;;;;;;1.85;1.20;;;22.10;40.20;;;;;;5002132;28;20612;-71
2022/03/14 00:08:58;;;;;;;1.77;1.10;;;22.10;40.20;;;;;;5001868;28;20026;-66
2022/03/14 00:11:26;;;;;;;1.48;1.00;;;22.10;40.20;;;;;;5001107;28;20104;-63
2022/03/14 00:13:55;;;;;;;1.60;1.10;;;22.00;40.20;;;;;;5001825;28;20049;-65
2022/03/14 00:16:25;;;;;;;1.88;1.13;;;22.00;40.20;;;;;;5003800;28;20069;-70
2022/03/14 00:18:53;;;;;;;2.25;1.10;;;22.00;40.20;;;;;;5001908;28;20080;-63
2022/03/14 00:21:22;;;;;;;1.50;1.10;;;22.00;40.50;;;;;;5002400;28;20090;-66
2022/03/14 00:23:48;;;;;;;1.70;1.25;;;22.00;40.20;;;;;;4998929;28;20029;-65
2022/03/14 00:26:14;;;;;;;1.52;1.05;;;22.00;40.30;;;;;;5000086;28;20022;-69
2022/03/14 00:28:39;;;;;;;1.40;1.00;;;22.00;40.30;;;;;;5003907;28;20026;-66
2022/03/14 00:31:05;;;;;;;2.15;1.25;;;22.00;40.30;;;;;;5003361;28;20034;-68
2022/03/14 00:33:31;;;;;;;2.20;1.20;;;21.90;40.20;;;;;;4997066;28;20506;-62
2022/03/14 00:35:57;;;;;;;1.30;0.90;;;21.90;40.30;;;;;;5002444;28;20060;-68
2022/03/14 00:38:25;;;;;;;1.40;1.00;;;21.90;40.30;;;;;;5001736;28;20029;-68
2022/03/14 00:40:51;;;;;;;1.67;1.10;;;21.90;40.30;;;;;;5003903;28;20045;-68
2022/03/14 00:43:17;;;;;;;1.67;1.10;;;21.90;40.30;;;;;;5000840;28;20026;-67
2022/03/14 00:45:42;;;;;;;1.83;1.17;;;21.90;40.30;;;;;;5006331;28;20038;-65
2022/03/14 00:48:08;;;;;;;2.00;1.00;;;21.90;40.40;;;;;;5005439;28;20548;-66
2022/03/14 00:50:34;;;;;;;2.58;1.27;;;21.90;40.40;;;;;;5005900;28;20398;-66
2022/03/14 00:52:59;;;;;;;1.55;1.02;;;21.80;40.30;;;;;;5003843;28;20037;-66
2022/03/14 00:55:25;;;;;;;1.90;1.10;;;21.80;40.40;;;;;;5002376;28;20029;-67
2022/03/14 00:57:51;;;;;;;1.77;1.10;;;21.80;40.40;;;;;;5002302;28;20049;-66
2022/03/14 01:00:17;;;;;;;1.88;1.02;;;21.80;40.40;;;;;;5006113;28;20034;-63
2022/03/14 01:02:43;;;;;;;1.52;1.00;;;21.80;40.40;;;;;;5012350;28;20498;-63
2022/03/14 01:05:09;;;;;;;1.48;1.10;;;21.80;40.40;;;;;;5002384;28;20030;-66
2022/03/14 01:07:34;;;;;;;1.52;1.10;;;21.80;40.40;;;;;;5005511;28;20041;-67
2022/03/14 01:10:04;;;;;;;1.40;1.10;;;21.70;40.40;;;;;;5002650;28;20208;-66
2022/03/14 01:12:30;;;;;;;;;;;21.70;40.50;;;;;;5005865;28;20029;-68
2022/03/14 01:14:56;;;;;;;1.73;1.00;;;21.70;40.40;;;;;;5005696;28;19920;-68
2022/03/14 01:17:21;;;;;;;1.65;1.10;;;21.70;40.50;;;;;;5005807;28;20026;-68
2022/03/14 01:19:47;;;;;;;1.55;1.00;;;21.70;40.50;;;;;;5005361;28;20513;-68
2022/03/14 01:22:13;;;;;;;1.48;1.02;;;21.70;40.50;;;;;;5005367;28;20044;-66
2022/03/14 01:24:38;;;;;;;1.90;1.20;;;21.70;40.50;;;;;;5001718;28;20446;-63
2022/03/14 01:27:07;;;;;;;1.10;0.90;;;21.70;40.50;;;;;;5005828;28;20034;-67
2022/03/14 01:29:34;;;;;;;2.07;1.10;;;21.60;40.50;;;;;;5004143;28;20108;-68
2022/03/14 01:32:01;;;;;;;1.67;1.08;;;21.70;40.50;;;;;;5005611;28;20038;-68
2022/03/14 01:34:27;;;;;;;1.95;1.20;;;21.70;40.60;;;;;;5004650;28;20022;-67
2022/03/14 01:36:53;;;;;;;1.63;0.95;;;21.60;40.50;;;;;;5005280;28;20045;-63
2022/03/14 01:39:18;;;;;;;1.60;1.05;;;21.60;40.60;;;;;;4996670;28;20383;-62
2022/03/14 01:41:44;;;;;;;1.55;1.00;;;21.60;40.60;;;;;;5002819;28;20083;-66
2022/03/14 01:44:09;;;;;;;1.50;1.00;;;21.50;40.60;;;;;;5003016;28;20549;-65
2022/03/14 01:46:35;;;;;;;1.50;1.08;;;21.60;40.60;;;;;;5005265;28;20049;-68
2022/03/14 01:49:01;;;;;;;1.45;0.90;;;21.50;40.60;;;;;;5006974;28;20387;-67
2022/03/14 01:51:27;;;;;;;1.52;1.13;;;21.60;40.60;;;;;;5005994;28;20351;-67
2022/03/14 01:53:53;;;;;;;1.70;1.10;;;21.50;40.60;;;;;;5004727;28;20034;-64
2022/03/14 01:56:20;;;;;;;1.77;1.10;;;21.50;40.60;;;;;;5004024;28;20036;-64
2022/03/14 01:58:46;;;;;;;1.35;1.00;;;21.50;40.60;;;;;;5004690;28;20036;-66
2022/03/14 02:01:13;;;;;;;1.33;0.90;;;21.50;40.60;;;;;;5004163;28;20467;-67
2022/03/14 02:03:39;;;;;;;1.63;1.10;;;21.50;40.60;;;;;;5003768;28;20021;-68
2022/03/14 02:06:05;;;;;;;1.50;1.00;;;21.50;40.70;;;;;;5003735;28;20276;-67
2022/03/14 02:08:30;;;;;;;1.40;1.00;;;21.50;40.70;;;;;;5002641;28;20022;-64
2022/03/14 02:10:56;;;;;;;1.73;1.10;;;21.50;40.70;;;;;;5004920;28;20466;-67
2022/03/14 02:13:22;;;;;;;1.85;1.30;;;21.40;40.60;;;;;;5003978;28;20029;-68
2022/03/14 02:15:48;;;;;;;2.45;1.10;;;21.40;40.70;;;;;;5005285;28;20061;-68
2022/03/14 02:18:14;;;;;;;1.73;1.20;;;21.40;40.60;;;;;;5003648;28;20485;-68
2022/03/14 02:20:40;;;;;;;1.25;0.95;;;21.50;40.70;;;;;;5004633;28;20034;-66
2022/03/14 02:23:06;;;;;;;1.95;1.10;;;21.40;40.70;;;;;;5004213;28;20108;-66
2022/03/14 02:25:34;;;;;;;1.52;1.00;;;21.40;40.70;;;;;;4999340;28;20117;-66
2022/03/14 02:28:00;;;;;;;1.73;1.17;;;21.40;40.70;;;;;;5003259;28;20033;-67
2022/03/14 02:30:26;;;;;;;1.73;1.02;;;21.40;40.70;;;;;;5005439;28;20029;-63
2022/03/14 02:32:51;;;;;;;1.40;1.10;;;21.40;40.70;;;;;;5004769;28;20552;-67
2022/03/14 02:35:17;;;;;;;1.00;0.88;;;21.40;40.70;;;;;;5003814;28;20105;-64
2022/03/14 02:37:44;;;;;;;1.88;1.20;;;21.30;40.70;;;;;;5005016;28;20078;-66
2022/03/14 02:40:10;;;;;;;1.83;1.13;;;21.30;40.70;;;;;;5001804;28;20425;-66
2022/03/14 02:42:36;;;;;;;2.67;1.20;;;21.40;40.80;;;;;;5004202;28;20036;-66
2022/03/14 02:45:04;;;;;;;1.48;1.10;;;21.40;40.80;;;;;;5004672;28;20503;-62
2022/03/14 02:47:30;;;;;;;1.65;1.10;;;21.40;40.80;;;;;;5003505;28;20142;-63
2022/03/14 02:49:56;;;;;;;1.45;1.10;;;21.40;40.80;;;;;;5003842;28;20435;-67
2022/03/14 02:52:21;;;;;;;1.70;1.13;;;21.30;40.80;;;;;;5004882;28;20041;-67
2022/03/14 02:54:47;;;;;;;1.63;1.10;;;21.30;40.70;;;;;;5001434;28;20042;-69
2022/03/14 02:57:13;;;;;;;1.67;1.10;;;21.30;40.80;;;;;;5001523;28;20498;-67
2022/03/14 02:59:39;;;;;;;2.13;1.25;;;21.30;40.80;;;;;;5003099;28;20038;-69
2022/03/14 03:02:05;;;;;;;1.50;1.00;;;21.30;40.80;;;;;;5003661;28;20049;-70
2022/03/14 03:04:32;;;;;;;1.15;0.90;;;21.30;40.80;;;;;;5004578;28;20018;-69
2022/03/14 03:06:58;;;;;;;1.80;1.10;;;21.30;40.90;;;;;;5003940;28;20176;-64
2022/03/14 03:09:26;;;;;;;1.40;1.00;;;21.30;40.90;;;;;;5000519;28;20025;-68
2022/03/14 03:11:53;;;;;;;2.17;1.52;;;21.30;40.90;;;;;;5003089;28;20038;-67
2022/03/14 03:14:19;;;;;;;1.52;1.10;;;21.30;40.90;;;;;;5000438;28;20041;-69
2022/03/14 03:16:45;;;;;;;1.15;0.90;;;21.30;40.90;;;;;;5003923;28;20523;-69
2022/03/14 03:19:10;;;;;;;1.75;1.05;;;21.30;40.90;;;;;;5005506;28;20034;-70
2022/03/14 03:21:39;;;;;;;1.60;1.02;;;21.30;40.90;;;;;;5002422;28;20439;-65
2022/03/14 03:24:07;;;;;;;1.48;1.00;;;21.20;40.80;;;;;;5000948;28;20021;-67
2022/03/14 03:26:38;;;;;;;1.30;1.00;;;21.20;40.80;;;;;;4999458;28;20120;-66
2022/03/14 03:29:05;;;;;;;1.48;1.00;;;21.20;40.80;;;;;;5005053;28;20033;-65
2022/03/14 03:31:31;;;;;;;2.33;1.20;;;21.20;40.80;;;;;;5003123;28;20512;-67
2022/03/14 03:33:57;;;;;;;1.83;1.10;;;21.20;40.90;;;;;;5003079;28;20030;-63
2022/03/14 03:36:23;;;;;;;1.35;0.95;;;21.20;40.90;;;;;;5003402;28;20030;-68
2022/03/14 03:38:48;;;;;;;1.85;1.13;;;21.20;40.90;;;;;;5003524;28;20509;-66
2022/03/14 03:41:14;;;;;;;1.50;1.00;;;21.20;40.90;;;;;;5002648;28;20455;-67
2022/03/14 03:43:40;;;;;;;1.45;0.98;;;21.20;40.80;;;;;;5003474;28;20033;-63
2022/03/14 03:46:06;;;;;;;1.30;1.00;;;21.20;40.90;;;;;;5001810;28;20045;-62
2022/03/14 03:48:32;;;;;;;1.48;1.00;;;21.20;40.90;;;;;;5004017;28;20037;-66
2022/03/14 03:50:57;;;;;;;2.17;1.10;;;21.20;40.90;;;;;;5003998;28;20033;-67
2022/03/14 03:53:23;;;;;;;1.48;1.00;;;21.20;40.90;;;;;;5001804;28;20107;-63
2022/03/14 03:55:49;;;;;;;1.95;1.23;;;21.20;40.90;;;;;;5001898;28;20030;-66
2022/03/14 03:58:15;;;;;;;1.55;1.15;;;21.20;40.90;;;;;;5001563;28;20029;-68
2022/03/14 04:00:41;;;;;;;1.73;1.10;;;21.20;40.90;;;;;;5001043;28;20918;-68
2022/03/14 04:03:08;;;;;;;1.70;1.17;;;21.20;41.00;;;;;;5002398;28;20037;-62
2022/03/14 04:05:37;;;;;;;1.65;1.05;;;21.20;41.00;;;;;;5004525;28;20014;-63
2022/03/14 04:08:03;;;;;;;2.05;1.00;;;21.10;40.90;;;;;;5000429;28;20026;-63
2022/03/14 04:10:29;;;;;;;1.80;1.00;;;21.20;40.90;;;;;;5003217;28;20037;-63
2022/03/14 04:13:02;;;;;;;1.50;1.00;;;21.10;40.90;;;;;;4999433;28;20021;-64
2022/03/14 04:15:28;;;;;;;1.92;1.13;;;21.10;40.90;;;;;;5003268;28;20264;-67
2022/03/14 04:17:57;;;;;;;1.80;1.20;;;21.10;40.90;;;;;;5003357;28;20220;-62
2022/03/14 04:20:23;;;;;;;1.60;1.08;;;21.10;40.90;;;;;;5002715;28;20477;-68
2022/03/14 04:22:50;;;;;;;1.50;1.00;;;21.10;40.90;;;;;;5001979;28;20034;-65
2022/03/14 04:25:16;;;;;;;1.75;1.20;;;21.10;40.90;;;;;;5001966;28;20040;-66
2022/03/14 04:27:41;;;;;;;1.73;1.13;;;21.10;40.90;;;;;;4999446;28;20600;-66
2022/03/14 04:30:08;;;;;;;1.70;1.13;;;21.10;40.90;;;;;;5000957;28;20087;-68
2022/03/14 04:32:34;;;;;;;1.83;1.00;;;21.10;40.90;;;;;;5001578;28;20029;-67
2022/03/14 04:35:00;;;;;;;1.77;1.20;;;21.10;40.90;;;;;;5002388;28;20472;-66
2022/03/14 04:37:26;;;;;;;1.40;0.98;;;21.10;40.90;;;;;;5003144;28;20034;-62
2022/03/14 04:39:52;;;;;;;1.60;1.10;;;21.10;40.90;;;;;;5002331;28;20045;-62
2022/03/14 04:42:20;;;;;;;1.85;1.10;;;21.10;40.90;;;;;;4998473;28;20516;-68
2022/03/14 04:44:49;;;;;;;1.55;1.02;;;21.10;40.90;;;;;;4995168;28;20041;-67
2022/03/14 04:47:16;;;;;;;1.95;1.10;;;21.10;41.00;;;;;;4999127;28;20141;-68
2022/03/14 04:49:42;;;;;;;1.33;1.00;;;21.10;40.90;;;;;;5000666;28;20026;-66
2022/03/14 04:52:09;;;;;;;1.50;1.00;;;21.10;40.90;;;;;;5001895;28;20049;-66
2022/03/14 04:54:35;;;;;;;2.53;1.20;;;21.10;40.90;;;;;;5001757;28;20248;-65
2022/03/14 04:57:00;;;;;;;1.42;1.00;;;21.10;40.90;;;;;;5001684;28;20139;-65
2022/03/14 04:59:26;;;;;;;1.40;1.10;;;21.10;40.90;;;;;;4993134;28;20622;-67
2022/03/14 05:01:52;;;;;;;1.40;0.90;;;21.00;40.90;;;;;;4992744;28;20173;-63
2022/03/14 05:04:18;;;;;;;1.92;1.20;;;21.00;40.90;;;;;;4992585;28;20419;-67
2022/03/14 05:06:44;;;;;;;1.95;1.00;;;21.10;40.90;;;;;;4999212;28;20113;-68
2022/03/14 05:09:10;;;;;;;1.20;0.90;;;21.00;40.90;;;;;;5001463;28;20017;-66
2022/03/14 05:11:38;;;;;;;1.85;1.02;;;21.00;40.90;;;;;;5002297;28;20022;-64
2022/03/14 05:14:07;;;;;;;1.92;1.02;;;21.00;40.90;;;;;;5002843;28;20490;-66
2022/03/14 05:16:33;;;;;;;1.88;1.10;;;21.00;40.90;;;;;;4999862;28;20029;-64
2022/03/14 05:18:58;;;;;;;2.58;1.10;;;21.00;41.00;;;;;;4999143;28;20888;-62
2022/03/14 05:21:24;;;;;;;1.33;0.93;;;21.00;40.90;;;;;;5000295;28;20078;-67
2022/03/14 05:23:50;;;;;;;1.15;0.98;;;21.00;41.00;;;;;;5001110;28;20137;-64
2022/03/14 05:26:16;;;;;;;1.35;0.98;;;21.00;41.00;;;;;;5000318;28;20114;-66
2022/03/14 05:28:41;;;;;;;1.23;1.02;;;21.00;41.00;;;;;;5007414;28;20034;-63
2022/03/14 05:31:07;;;;;;;1.85;1.10;;;21.00;41.00;;;;;;5002007;28;20057;-64
2022/03/14 05:33:32;;;;;;;1.42;1.00;;;21.00;41.00;;;;;;5006357;28;20127;-64
2022/03/14 05:35:58;;;;;;;1.20;0.90;;;21.00;41.00;;;;;;5006172;28;20409;-66
2022/03/14 05:38:24;;;;;;;1.08;0.90;;;21.00;41.00;;;;;;5005460;28;20029;-66
2022/03/14 05:40:51;;;;;;;1.05;0.80;;;20.90;41.00;;;;;;5003988;28;20025;-64
2022/03/14 05:43:17;;;;;;;2.25;0.88;;;21.00;41.00;;;;;;5003290;28;20030;-66
2022/03/14 05:45:43;;;;;;;1.52;1.00;;;20.90;41.00;;;;;;5007060;28;20493;-62
2022/03/14 05:48:08;;;;;;;1.63;1.17;;;20.90;41.10;;;;;;5003322;28;20120;-63
2022/03/14 05:50:34;;;;;;;1.40;1.00;;;20.90;41.10;;;;;;5005492;28;20502;-64
2022/03/14 05:53:01;;;;;;;1.55;1.00;;;20.90;41.10;;;;;;5005185;28;20462;-66
2022/03/14 05:55:27;;;;;;;1.33;0.90;;;20.90;41.10;;;;;;5004776;28;20026;-66
2022/03/14 05:57:54;;;;;;;1.50;0.93;;;20.90;41.10;;;;;;5001572;28;20037;-66
2022/03/14 06:00:24;;;;;;;1.73;1.02;;;20.90;41.10;;;;;;5002894;28;20034;-65
2022/03/14 06:02:51;;;;;;;1.38;0.93;;;20.90;41.20;;;;;;5005676;28;20037;-66
2022/03/14 06:05:21;;;;;;;1.77;1.17;;;20.90;41.20;;;;;;5002399;28;20033;-63
2022/03/14 06:07:47;;;;;;;1.58;1.20;;;20.90;41.20;;;;;;5002808;28;20056;-65
2022/03/14 06:10:15;;;;;;;1.80;1.05;;;20.90;41.20;;;;;;5000199;28;20033;-63
2022/03/14 06:12:42;;;;;;;1.30;0.93;;;20.90;41.20;;;;;;5000121;28;20571;-66
2022/03/14 06:15:09;;;;;;;1.48;1.00;;;20.90;41.20;;;;;;5005173;28;20029;-66
2022/03/14 06:17:35;;;;;;;2.15;1.20;;;20.90;41.20;;;;;;5004469;28;20512;-67
2022/03/14 06:20:01;;;;;;;1.73;1.20;;;20.90;41.20;;;;;;5005876;28;20026;-68
2022/03/14 06:22:26;;;;;;;2.40;1.30;;;20.90;41.20;;;;;;5009673;28;20042;-66
2022/03/14 06:24:52;;;;;;;2.88;1.52;;;20.90;41.30;;;;;;5003431;28;20406;-66
2022/03/14 06:27:21;;;;;;;3.22;1.70;;;20.90;41.20;;;;;;5002046;28;20038;-66
2022/03/14 06:29:47;;;;;;;3.47;1.60;;;20.90;41.30;;;;;;5006347;28;20602;-65
2022/03/14 06:32:13;;;;;;;4.05;2.20;;;20.90;41.30;;;;;;5005425;28;20037;-66
2022/03/14 06:34:39;;;;;;;3.10;1.63;;;20.90;41.40;;;;;;5005679;28;20022;-66
2022/03/14 06:37:09;;;;;;;4.75;2.00;;;20.90;41.40;;;;;;5019002;28;20594;-64
2022/03/14 06:39:38;;;;;;;3.58;2.05;;;20.90;41.40;;;;;;5003143;28;20034;-63
2022/03/14 06:42:09;;;;;;;5.07;2.25;;;20.80;41.40;;;;;;5002752;28;20041;-65
2022/03/14 06:44:38;;;;;;;4.22;1.80;;;20.80;41.30;;;;;;5006302;28;20026;-67
2022/03/14 06:47:04;;;;;;;4.88;2.00;;;20.90;41.40;;;;;;5003726;28;20034;-68
2022/03/14 06:49:30;;;;;;;4.40;2.10;;;20.90;41.40;;;;;;5006515;28;20375;-62
2022/03/14 06:51:56;;;;;;;5.00;1.92;;;20.90;41.40;;;;;;5005645;28;20022;-66
2022/03/14 06:54:22;;;;;;;4.20;2.00;;;20.90;41.30;;;;;;5002884;28;20026;-66
2022/03/14 06:56:49;;;;;;;4.43;2.10;;;20.80;41.30;;;;;;5003478;28;20213;-62
2022/03/14 06:59:14;;;;;;;4.97;2.35;;;20.90;41.60;;;;;;5008438;28;20386;-64
2022/03/14 07:01:40;;;;;;;4.07;2.20;;;21.00;42.10;;;;;;5015429;28;20501;-63
2022/03/14 07:04:06;;;;;;;4.13;2.40;;;21.10;41.80;;;;;;5015434;28;20320;-65
2022/03/14 07:06:32;;;;;;;6.18;2.80;;;21.30;41.70;;;;;;5016329;28;20090;-65
2022/03/14 07:08:57;;;;;;;6.68;2.50;;;21.40;41.60;;;;;;5009588;28;20022;-65
2022/03/14 07:11:23;;;;;;;5.60;2.90;;;21.50;41.20;;;;;;5015876;28;20022;-65
2022/03/14 07:13:49;;;;;;;5.60;2.67;;;21.60;41.10;;;;;;5016682;28;20033;-63
2022/03/14 07:16:14;;;;;;;4.45;2.40;;;21.80;40.80;;;;;;5011058;28;20025;-64
2022/03/14 07:18:40;;;;;;;4.80;2.25;;;21.90;40.60;;;;;;5015358;28;20017;-65
2022/03/14 07:21:06;;;;;;;4.13;2.40;;;22.00;40.50;;;;;;5015412;28;20033;-66
2022/03/14 07:23:31;;;;;;;4.53;2.40;;;22.00;40.30;;;;;;5015333;28;20040;-64
2022/03/14 07:25:57;;;;;;;4.13;2.20;;;22.00;40.30;;;;;;5017297;28;20072;-64
2022/03/14 07:28:22;;;;;;;4.35;2.60;;;22.00;40.30;;;;;;5015544;28;20042;-66
2022/03/14 07:30:48;;;;;;;4.93;2.30;;;22.00;40.30;;;;;;5012315;28;20046;-68
2022/03/14 07:33:15;;;;;;;3.97;2.22;;;22.00;40.30;;;;;;5014583;28;20050;-63
2022/03/14 07:35:40;;;;;;;4.97;2.67;;;22.00;40.30;;;;;;5015566;28;20052;-67
2022/03/14 07:38:07;;;;;;;4.28;2.35;;;22.00;40.30;;;;;;5004667;28;20116;-65
2022/03/14 07:40:32;;;;;;;4.07;2.10;;;22.00;40.30;;;;;;5004088;28;20026;-62
2022/03/14 07:42:59;;;;;;;4.20;2.20;;;22.00;40.30;;;;;;5001732;28;20056;-65
2022/03/14 07:45:26;;;;;;;4.45;2.10;;;22.00;40.30;;;;;;5003132;28;20113;-66
2022/03/14 07:47:56;;;;;;;4.07;2.38;;;22.00;40.30;;;;;;5001746;28;20038;-65
2022/03/14 07:50:24;;;;;;;4.22;2.15;;;22.00;40.30;;;;;;5003629;28;20069;-68
2022/03/14 07:52:49;;;;;;;4.25;2.08;;;22.00;40.30;;;;;;5002159;28;20034;-68
2022/03/14 07:55:15;;;;;;;3.47;1.75;;;22.00;40.20;;;;;;5000620;28;20036;-65
2022/03/14 07:57:42;;;;;;;4.40;2.20;;;22.10;40.30;;;;;;5005582;28;20087;-67
2022/03/14 08:00:13;;;;;;;3.25;1.77;;;22.10;40.30;;;;;;5005119;28;20144;-65
2022/03/14 08:02:39;;;;;;;3.45;1.73;;;22.10;40.40;;;;;;5016732;28;20462;-66
2022/03/14 08:05:06;;;;;;;2.92;1.67;;;22.10;40.50;;;;;;5009664;28;20166;-66
2022/03/14 08:07:34;;;;;;;3.38;1.83;;;22.10;40.80;;;;;;5004411;28;20030;-68
2022/03/14 08:10:04;;;;;;;3.05;1.77;;;22.10;41.50;;;;;;5002664;28;20479;-65
2022/03/14 08:12:30;;;;;;;3.22;1.70;;;22.20;41.90;;;;;;5003806;28;20049;-70
2022/03/14 08:14:56;;;;;;;3.22;1.70;;;22.20;41.60;;;;;;5002977;28;20108;-67
2022/03/14 08:17:21;;;;;;;3.05;1.60;;;22.20;42.60;;;;;;5006791;28;20156;-63
2022/03/14 08:19:47;;;;;;;3.15;1.73;;;22.30;41.90;;;;;;5002468;28;20030;-68
2022/03/14 08:22:13;;;;;;;2.95;1.55;;;22.30;42.30;;;;;;5001088;28;20706;-66
2022/03/14 08:24:38;;;;;;;3.13;1.63;;;22.40;41.80;;;;;;5000547;28;20036;-69
2022/03/14 08:27:04;;;;;;;4.18;1.80;;;22.40;41.60;;;;;;5001652;28;20084;-62
2022/03/14 08:29:31;;;;;;;3.65;1.90;;;22.40;41.50;;;;;;5001104;28;20030;-66
2022/03/14 08:32:00;;;;;;;3.30;1.70;;;22.40;41.40;;;;;;5002733;28;20088;-69
2022/03/14 08:34:26;;;;;;;2.67;1.50;;;22.40;41.50;;;;;;5001985;28;20105;-69
2022/03/14 08:36:52;;;;;;;3.03;1.55;;;22.50;41.20;;;;;;5003027;28;20681;-66
2022/03/14 08:39:17;;;;;;;3.78;1.55;;;22.50;41.20;;;;;;5000303;28;20044;-66
2022/03/14 08:41:43;;;;;;;2.95;1.50;;;22.50;41.10;;;;;;5001248;28;20150;-63
2022/03/14 08:44:09;;;;;;;2.53;1.50;;;22.50;41.20;;;;;;5002331;28;20026;-66
2022/03/14 08:46:35;;;;;;;2.63;1.48;;;22.60;41.00;;;;;;5002033;28;20061;-66
2022/03/14 08:49:01;;;;;;;2.15;1.33;;;22.60;41.00;;;;;;5000823;28;20103;-69
2022/03/14 08:51:27;;;;;;;2.85;1.40;;;22.60;41.80;;;;;;5003227;28;20454;-66
2022/03/14 08:53:53;;;;;;;2.58;1.38;;;22.60;41.80;;;;;;5002473;28;20280;-66
2022/03/14 08:56:20;;;;;;;3.33;1.70;;;22.70;42.20;;;;;;5002213;28;20121;-63
2022/03/14 08:58:45;;;;;;;2.65;1.60;;;22.70;42.00;;;;;;5001266;28;20069;-64
2022/03/14 09:01:12;;;;;;;3.22;1.45;;;22.80;42.00;;;;;;5001866;28;20109;-67
2022/03/14 09:03:38;;;;;;;2.35;1.20;;;22.80;42.30;;;;;;5000909;28;20056;-66
2022/03/14 09:06:05;;;;;;;3.35;1.58;;;22.80;41.50;;;;;;5004081;28;20479;-66
2022/03/14 09:08:34;;;;;;;2.47;1.33;;;22.80;42.90;;;;;;5002721;28;20030;-68
2022/03/14 09:11:01;;;;;;;3.15;1.20;;;22.90;41.70;;;;;;5005804;28;20030;-68
2022/03/14 09:13:28;;;;;;;2.33;1.30;;;22.90;42.50;;;;;;5003860;28;20026;-67
2022/03/14 09:15:54;;;;;;;2.58;1.40;;;22.90;42.40;;;;;;5006813;28;20061;-65
2022/03/14 09:18:20;;;;;;;2.40;1.45;;;22.90;41.80;;;;;;5005050;28;20030;-69
2022/03/14 09:20:47;;;;;;;2.42;1.38;;;23.00;42.50;;;;;;5006386;28;20465;-66
2022/03/14 09:23:13;;;;;;;2.30;1.20;;;23.00;42.80;;;;;;5004277;28;20193;-67
2022/03/14 09:25:39;;;;;;;1.98;1.30;;;23.00;41.90;;;;;;5005762;28;20026;-66
2022/03/14 09:28:04;;;;;;;1.92;1.23;;;23.00;42.60;;;;;;5004092;28;20513;-64
2022/03/14 09:30:30;;;;;;;2.72;1.60;;;23.10;42.50;;;;;;5003667;28;20033;-66
2022/03/14 09:32:56;;;;;;;3.35;1.70;;;23.10;41.70;;;;;;5004408;28;20462;-69
2022/03/14 09:35:23;;;;;;;3.47;1.75;;;23.10;41.00;;;;;;5006543;28;20112;-62
2022/03/14 09:37:49;;;;;;;4.50;1.83;;;23.10;40.50;;;;;;5003493;28;20719;-69
2022/03/14 09:40:18;;;;;;;3.72;1.50;;;23.10;40.10;;;;;;5003350;28;20034;-63
2022/03/14 09:42:46;;;;;;;2.03;1.30;;;23.10;38.30;;;;;;5002802;28;20038;-65
2022/03/14 09:45:14;;;;;;;2.28;1.27;;;23.00;37.30;;;;;;5004680;28;20041;-66
2022/03/14 09:47:42;;;;;;;3.00;1.40;;;23.00;37.00;;;;;;5006042;28;20026;-66
2022/03/14 09:50:14;;;;;;;2.05;1.10;;;23.00;38.00;;;;;;5007845;28;20105;-65
2022/03/14 09:52:44;;;;;;;2.03;1.20;;;23.00;38.20;;;;;;5005337;28;20014;-67
2022/03/14 09:55:11;;;;;;;2.13;1.23;;;23.00;38.40;;;;;;5003324;28;20025;-67
2022/03/14 09:57:38;;;;;;;2.30;1.20;;;23.00;38.50;;;;;;5004083;28;20034;-66
2022/03/14 10:00:06;;;;;;;1.85;1.10;;;23.10;38.60;;;;;;5004254;28;20029;-65
2022/03/14 10:02:36;;;;;;;2.83;1.10;;;23.00;38.50;;;;;;5005990;28;20099;-65
2022/03/14 10:05:06;;;;;;;;;;;23.00;38.60;;;;;;5007200;28;20080;-65
2022/03/14 10:07:34;;;;;;;2.08;1.17;;;23.10;38.20;;;;;;5022472;28;19949;-63
2022/03/14 10:10:00;;;;;;;2.13;1.15;;;23.10;38.40;;;;;;4995361;28;20030;-63
2022/03/14 10:12:25;;;;;;;1.58;1.00;;;23.10;38.30;;;;;;5005397;28;20115;-65
2022/03/14 10:14:51;;;;;;;1.45;1.00;;;23.10;38.60;;;;;;5006752;28;20033;-63
2022/03/14 10:17:17;;;;;;;1.50;1.00;;;23.10;38.30;;;;;;5006568;28;20042;-64
2022/03/14 10:19:57;;;;;;;1.83;1.10;;;23.10;38.00;;;;;;5021791;28;20030;-68
2022/03/14 10:22:23;;;;;;;1.70;1.02;;;23.10;38.40;;;;;;4997292;28;20026;-65
2022/03/14 10:24:53;;;;;;;1.40;1.00;;;23.10;38.50;;;;;;5004811;28;20140;-64
2022/03/14 10:27:20;;;;;;;2.22;1.10;;;23.10;38.50;;;;;;5002860;28;20489;-67
2022/03/14 10:29:46;;;;;;;1.75;1.00;;;23.10;38.50;;;;;;5012196;28;20444;-66
2022/03/14 10:32:30;;;;;;;1.90;1.10;;;23.10;37.60;;;;;;5006212;28;20204;-66
2022/03/14 10:34:58;;;;;;;1.70;0.90;;;23.10;37.30;;;;;;5006624;28;20030;-66
2022/03/14 10:37:28;;;;;;;1.30;0.85;;;23.10;38.20;;;;;;5003481;28;20033;-65
2022/03/14 10:39:59;;;;;;;2.38;1.02;;;23.10;38.10;;;;;;5004592;28;20503;-67
2022/03/14 10:42:25;;;;;;;1.27;0.82;;;23.10;38.20;;;;;;5003876;28;20026;-66
2022/03/14 10:44:52;;;;;;;1.17;0.90;;;23.10;38.20;;;;;;5003684;28;20038;-63
2022/03/14 10:47:19;;;;;;;1.13;0.77;;;23.20;38.10;;;;;;5002362;28;20029;-63
2022/03/14 10:49:45;;;;;;;1.88;1.00;;;23.20;38.10;;;;;;5003560;28;20040;-65
2022/03/14 10:52:13;;;;;;;1.58;0.80;;;23.20;38.30;;;;;;5003866;28;20109;-69
2022/03/14 10:54:41;;;;;;;1.73;0.88;;;23.20;38.20;;;;;;5003115;28;20171;-68
2022/03/14 10:57:13;;;;;;;1.60;0.80;;;23.20;38.10;;;;;;5002958;28;20053;-68
2022/03/14 10:59:40;;;;;;;0.93;0.80;;;23.20;38.10;;;;;;5004206;28;20026;-63
2022/03/14 11:02:08;;;;;;;1.15;0.75;;;23.20;38.20;;;;;;5004664;28;20048;-68
2022/03/14 11:04:46;;;;;;;1.38;1.00;;;23.20;37.30;;;;;;5005606;28;20076;-63
2022/03/14 11:07:13;;;;;;;1.48;0.90;;;23.20;37.80;;;;;;5004786;28;20072;-68
2022/03/14 11:09:56;;;;;;;1.40;1.00;;;23.20;37.90;;;;;;5017126;28;20040;-63
2022/03/14 11:12:23;;;;;;;1.15;0.85;;;23.20;37.90;;;;;;5002219;28;20049;-63
2022/03/14 11:15:00;;;;;;;1.20;0.80;;;23.30;37.90;;;;;;5003976;28;20504;-66
2022/03/14 11:17:34;;;;;;;1.33;0.90;;;23.30;37.70;;;;;;5004911;28;20037;-64
2022/03/14 11:20:00;;;;;;;1.20;0.80;;;23.30;37.70;;;;;;5003838;28;20029;-66
2022/03/14 11:22:29;;;;;;;0.80;0.60;;;23.30;37.80;;;;;;5001736;28;20083;-66
2022/03/14 11:25:00;;;;;;;1.55;0.90;;;23.20;38.10;;;;;;5002448;28;20038;-65
2022/03/14 11:27:31;;;;;;;1.40;0.88;;;23.30;38.20;;;;;;5002585;28;20026;-67
2022/03/14 11:30:09;;;;;;;1.13;0.70;;;23.30;38.70;;;;;;5018428;28;20026;-68
2022/03/14 11:32:37;;;;;;;1.13;0.70;;;23.30;38.10;;;;;;5004677;28;20092;-68
2022/03/14 11:35:04;;;;;;;1.02;0.73;;;23.30;38.00;;;;;;5003855;28;20108;-65
2022/03/14 11:37:31;;;;;;;1.33;0.70;;;23.30;38.10;;;;;;5003770;28;20128;-68
2022/03/14 11:39:58;;;;;;;0.50;0.50;;;23.20;36.30;;;;;;5001809;28;20519;-66
2022/03/14 11:42:24;;;;;;;1.27;0.75;;;23.20;36.90;;;;;;5002040;28;20459;-65
2022/03/14 11:44:51;;;;;;;1.83;0.73;;;23.20;37.20;;;;;;5004178;28;20030;-65
2022/03/14 11:47:20;;;;;;;1.15;0.70;;;23.20;37.30;;;;;;5002823;28;20036;-63
2022/03/14 11:49:47;;;;;;;0.98;0.60;;;23.20;37.20;;;;;;5003258;28;20040;-63
2022/03/14 11:52:24;;;;;;;1.50;0.73;;;23.20;36.50;;;;;;5001940;28;20449;-64
2022/03/14 11:54:53;;;;;;;1.23;0.75;;;23.30;37.70;;;;;;5002460;28;20505;-65
2022/03/14 11:57:39;;;;;;;0.98;0.70;;;23.30;37.20;;;;;;5018072;28;20081;-64
2022/03/14 12:00:32;;;;;;;1.05;0.60;;;23.30;37.20;;;;;;4998940;28;20086;-62
2022/03/14 12:03:05;;;;;;;1.25;0.70;;;23.30;37.50;;;;;;5003215;28;20123;-63
2022/03/14 12:05:38;;;;;;;1.88;0.73;;;23.30;37.50;;;;;;5019484;28;20038;-65
2022/03/14 12:08:15;;;;;;;1.40;0.68;;;23.30;37.40;;;;;;5002557;28;20044;-66
2022/03/14 12:10:42;;;;;;;1.02;0.70;;;23.30;36.30;;;;;;5001938;28;20026;-64
2022/03/14 12:13:08;;;;;;;0.98;0.60;;;23.40;37.40;;;;;;4999350;28;20514;-67
2022/03/14 12:15:38;;;;;;;0.90;0.63;;;23.40;37.20;;;;;;5011763;28;20117;-66
2022/03/14 12:18:25;;;;;;;1.10;0.70;;;23.40;37.40;;;;;;5021019;28;20029;-66
2022/03/14 12:21:55;;;;;;;1.23;0.90;;;23.40;36.60;;;;;;5012147;28;20099;-67
2022/03/14 12:24:40;;;;;;;1.13;0.75;;;23.40;36.80;;;;;;4934002;28;20289;-69
2022/03/14 12:27:16;;;;;;;1.08;0.70;;;23.40;36.90;;;;;;4934132;28;20040;-69
2022/03/14 12:29:42;;;;;;;1.45;0.70;;;23.40;36.90;;;;;;4981176;28;20038;-67
2022/03/14 12:32:27;;;;;;;1.00;0.50;;;23.40;37.10;;;;;;5002130;28;20085;-67
2022/03/14 12:34:57;;;;;;;0.52;0.50;;;23.40;37.10;;;;;;5003290;28;20144;-68
2022/03/14 12:37:25;;;;;;;1.10;0.60;;;23.50;37.20;;;;;;5002628;28;20034;-68
2022/03/14 12:39:50;;;;;;;0.80;0.57;;;23.50;36.60;;;;;;5003597;28;20026;-64
2022/03/14 12:42:23;;;;;;;0.80;0.60;;;23.50;35.30;;;;;;5001316;28;20025;-67
2022/03/14 12:45:39;;;;;;;0.55;0.50;;;23.50;35.00;;;;;;5005872;28;20487;-68
2022/03/14 12:48:27;;;;;;;0.77;0.50;;;23.50;35.20;;;;;;4964180;28;20510;-67
2022/03/14 12:50:55;;;;;;;0.80;0.50;;;23.50;36.00;;;;;;5007419;28;20496;-65